createdAt,value
2022-11-16T00:02:06.017Z,12.48
2022-11-16T00:04:27.902Z,12.48
2022-11-16T00:06:50.157Z,12.47
2022-11-16T00:09:26.879Z,12.47
2022-11-16T00:11:52.402Z,12.47
2022-11-16T00:14:14.374Z,12.46
2022-11-16T00:16:36.523Z,12.46
2022-11-16T00:19:02.850Z,12.48
2022-11-16T00:21:26.849Z,12.47
2022-11-16T00:23:48.924Z,12.48
2022-11-16T00:26:12.890Z,12.49
2022-11-16T00:28:36.131Z,12.49
2022-11-16T00:31:04.680Z,12.51
2022-11-16T00:33:26.698Z,12.51
2022-11-16T00:35:51.339Z,12.51
2022-11-16T00:38:16.400Z,12.51
2022-11-16T00:40:41.413Z,12.52
2022-11-16T00:43:09.569Z,12.53
2022-11-16T00:45:31.626Z,12.52
2022-11-16T00:47:59.175Z,12.53
2022-11-16T00:50:25.212Z,12.53
2022-11-16T00:52:47.432Z,12.56
2022-11-16T00:55:13.534Z,12.55
2022-11-16T00:57:36.243Z,12.56
2022-11-16T00:59:59.405Z,12.57
2022-11-16T01:02:21.441Z,12.59
2022-11-16T01:04:43.905Z,12.58
2022-11-16T01:07:05.971Z,12.59
2022-11-16T01:09:27.930Z,12.60
2022-11-16T01:12:08.147Z,12.58
2022-11-16T01:14:30.634Z,12.56
2022-11-16T01:16:52.487Z,12.55
2022-11-16T01:19:15.529Z,12.57
2022-11-16T01:21:37.491Z,12.57
2022-11-16T01:23:59.588Z,12.56
2022-11-16T01:26:21.605Z,12.58
2022-11-16T01:28:43.533Z,12.59
2022-11-16T01:31:06.677Z,12.61
2022-11-16T01:33:31.557Z,12.62
2022-11-16T01:35:53.624Z,12.61
2022-11-16T01:38:18.389Z,12.62
2022-11-16T01:40:40.468Z,12.61
2022-11-16T01:43:02.505Z,12.60
2022-11-16T01:45:41.331Z,12.59
2022-11-16T01:48:06.803Z,12.57
2022-11-16T01:50:29.815Z,12.58
2022-11-16T01:53:04.032Z,12.58
2022-11-16T01:55:37.796Z,12.56
2022-11-16T01:58:18.923Z,12.57
2022-11-16T02:00:44.785Z,12.56
2022-11-16T02:03:23.241Z,12.55
2022-11-16T02:06:10.805Z,12.54
2022-11-16T02:09:23.985Z,12.54
2022-11-16T02:12:37.775Z,12.54
2022-11-16T02:15:34.170Z,12.56
2022-11-16T02:18:49.731Z,12.55
2022-11-16T02:21:27.220Z,12.54
2022-11-16T02:24:14.077Z,12.55
2022-11-16T02:27:23.662Z,12.56
2022-11-16T02:29:51.549Z,12.55
2022-11-16T02:32:46.551Z,12.56
2022-11-16T02:35:28.942Z,12.55
2022-11-16T02:38:08.054Z,12.54
2022-11-16T02:40:35.665Z,12.56
2022-11-16T02:43:21.774Z,12.58
2022-11-16T02:45:54.107Z,12.58
2022-11-16T02:48:27.477Z,12.60
2022-11-16T02:50:54.125Z,12.60
2022-11-16T02:53:16.203Z,12.60
2022-11-16T02:55:38.440Z,12.59
2022-11-16T02:58:11.138Z,12.59
2022-11-16T03:01:15.852Z,12.59
2022-11-16T03:03:50.258Z,12.57
2022-11-16T03:06:31.516Z,12.54
2022-11-16T03:09:05.657Z,12.54
2022-11-16T03:11:49.038Z,12.58
2022-11-16T03:14:20.748Z,12.58
2022-11-16T03:16:50.330Z,12.59
2022-11-16T03:19:21.328Z,12.60
2022-11-16T03:22:03.404Z,12.60
2022-11-16T03:24:26.179Z,12.62
2022-11-16T03:26:59.875Z,12.63
2022-11-16T03:29:34.037Z,12.63
2022-11-16T03:32:19.200Z,12.66
2022-11-16T03:35:06.665Z,12.64
2022-11-16T03:37:30.969Z,12.66
2022-11-16T03:39:57.829Z,12.65
2022-11-16T03:42:24.764Z,12.65
2022-11-16T03:44:49.846Z,12.62
2022-11-16T03:47:13.938Z,12.63
2022-11-16T03:49:36.293Z,12.61
2022-11-16T03:51:59.147Z,12.58
2022-11-16T03:54:21.292Z,12.58
2022-11-16T03:56:43.258Z,12.58
2022-11-16T03:59:05.289Z,12.56
2022-11-16T04:01:27.369Z,12.55
2022-11-16T04:03:49.301Z,12.53
2022-11-16T04:06:31.607Z,12.53
2022-11-16T04:09:12.005Z,12.50
2022-11-16T04:11:54.510Z,12.48
2022-11-16T04:14:41.724Z,12.48
2022-11-16T04:17:31.716Z,12.48
2022-11-16T04:20:12.353Z,12.46
2022-11-16T04:23:25.030Z,12.42
2022-11-16T04:25:51.501Z,12.38
2022-11-16T04:28:17.569Z,12.36
2022-11-16T04:31:08.196Z,12.35
2022-11-16T04:33:51.670Z,12.32
2022-11-16T04:36:32.214Z,12.29
2022-11-16T04:38:54.194Z,12.28
2022-11-16T04:41:35.061Z,12.25
2022-11-16T04:43:58.511Z,12.24
2022-11-16T04:46:39.201Z,12.19
2022-11-16T04:49:01.253Z,12.16
2022-11-16T04:51:23.231Z,12.13
2022-11-16T04:53:45.088Z,12.11
2022-11-16T04:56:15.030Z,12.09
2022-11-16T04:58:37.729Z,12.06
2022-11-16T05:01:00.319Z,12.04
2022-11-16T05:03:23.246Z,11.99
2022-11-16T05:05:45.798Z,11.97
2022-11-16T05:08:09.291Z,11.93
2022-11-16T05:10:31.606Z,11.89
2022-11-16T05:12:54.494Z,11.86
2022-11-16T05:15:19.684Z,11.85
2022-11-16T05:17:42.697Z,11.81
2022-11-16T05:20:29.231Z,11.80
2022-11-16T05:22:58.625Z,11.79
2022-11-16T05:25:26.394Z,11.75
2022-11-16T05:27:48.808Z,11.74
2022-11-16T05:30:11.970Z,11.73
2022-11-16T05:32:34.543Z,11.73
2022-11-16T05:34:56.752Z,11.75
2022-11-16T05:37:21.192Z,11.73
2022-11-16T05:39:43.443Z,11.71
2022-11-16T05:42:07.278Z,11.69
2022-11-16T05:44:29.283Z,11.67
2022-11-16T05:46:51.720Z,11.68
2022-11-16T05:49:15.265Z,11.65
2022-11-16T05:51:39.084Z,11.63
2022-11-16T05:54:02.906Z,11.61
2022-11-16T05:56:24.999Z,11.55
2022-11-16T05:58:48.818Z,11.53
2022-11-16T06:01:10.922Z,11.52
2022-11-16T06:03:33.622Z,11.49
2022-11-16T06:05:57.194Z,11.45
2022-11-16T06:08:21.322Z,11.40
2022-11-16T06:10:46.697Z,11.36
2022-11-16T06:13:08.697Z,11.31
2022-11-16T06:15:30.720Z,11.27
2022-11-16T06:17:53.329Z,11.22
2022-11-16T06:20:16.480Z,11.16
2022-11-16T06:22:39.815Z,11.10
2022-11-16T06:25:02.772Z,11.05
2022-11-16T06:27:24.851Z,10.99
2022-11-16T06:29:46.822Z,10.91
2022-11-16T06:32:08.752Z,10.86
2022-11-16T06:34:30.866Z,10.81
2022-11-16T06:36:53.399Z,10.77
2022-11-16T06:39:15.935Z,10.73
2022-11-16T06:41:41.386Z,10.69
2022-11-16T06:44:05.293Z,10.65
2022-11-16T06:46:32.390Z,10.63
2022-11-16T06:48:54.524Z,10.61
2022-11-16T06:51:17.086Z,10.59
2022-11-16T06:53:39.081Z,10.54
2022-11-16T06:56:05.464Z,10.53
2022-11-16T06:58:33.267Z,10.49
2022-11-16T07:00:55.380Z,10.45
2022-11-16T07:03:18.259Z,10.43
2022-11-16T07:05:44.826Z,10.40
2022-11-16T07:08:10.073Z,10.33
2022-11-16T07:10:32.002Z,10.26
2022-11-16T07:12:53.929Z,10.18
2022-11-16T07:15:16.468Z,10.13
2022-11-16T07:17:42.966Z,10.09
2022-11-16T07:20:05.588Z,10.05
2022-11-16T07:22:28.357Z,10.05
2022-11-16T07:24:50.495Z,10.05
2022-11-16T07:27:13.424Z,10.06
2022-11-16T07:29:39.456Z,10.06
2022-11-16T07:32:24.574Z,10.04
2022-11-16T07:35:22.069Z,10.05
2022-11-16T07:37:44.156Z,10.07
2022-11-16T07:40:09.372Z,10.09
2022-11-16T07:42:32.952Z,10.12
2022-11-16T07:45:01.754Z,10.15
2022-11-16T07:47:23.660Z,10.18
2022-11-16T07:49:45.602Z,10.23
2022-11-16T07:52:13.697Z,10.25
2022-11-16T07:54:52.745Z,10.27
2022-11-16T07:57:17.317Z,10.30
2022-11-16T07:59:39.339Z,10.34
2022-11-16T08:02:01.648Z,10.39
2022-11-16T08:04:23.624Z,10.41
2022-11-16T08:06:46.881Z,10.44
2022-11-16T08:09:09.558Z,10.49
2022-11-16T08:11:35.230Z,10.52
2022-11-16T08:13:58.181Z,10.53
2022-11-16T08:16:22.963Z,10.52
2022-11-16T08:18:50.856Z,10.57
2022-11-16T08:21:15.920Z,10.61
2022-11-16T08:23:42.471Z,10.65
2022-11-16T08:26:13.600Z,10.70
2022-11-16T08:28:37.722Z,10.73
2022-11-16T08:31:00.131Z,10.78
2022-11-16T08:33:24.455Z,10.81
2022-11-16T08:35:46.521Z,10.82
2022-11-16T08:38:08.546Z,10.84
2022-11-16T08:40:30.460Z,10.88
2022-11-16T08:42:57.008Z,10.91
2022-11-16T08:45:19.093Z,10.94
2022-11-16T08:47:41.013Z,11.02
2022-11-16T08:50:03.761Z,11.05
2022-11-16T08:52:25.995Z,11.11
2022-11-16T08:54:49.550Z,11.12
2022-11-16T08:57:12.517Z,11.12
2022-11-16T08:59:36.462Z,11.17
2022-11-16T09:02:03.557Z,11.18
2022-11-16T09:04:25.577Z,11.21
2022-11-16T09:06:47.712Z,11.23
2022-11-16T09:09:09.689Z,11.24
2022-11-16T09:11:31.584Z,11.26
2022-11-16T09:13:55.662Z,11.28
2022-11-16T09:16:21.117Z,11.30
2022-11-16T09:18:47.248Z,11.31
2022-11-16T09:21:09.213Z,11.37
2022-11-16T09:23:32.132Z,11.40
2022-11-16T09:25:55.530Z,11.46
2022-11-16T09:28:22.245Z,11.49
2022-11-16T09:30:46.621Z,11.49
2022-11-16T09:33:09.064Z,11.51
2022-11-16T09:35:31.793Z,11.55
2022-11-16T09:37:53.768Z,11.61
2022-11-16T09:40:16.125Z,11.67
2022-11-16T09:43:06.363Z,11.76
2022-11-16T09:45:46.476Z,11.85
2022-11-16T09:48:13.624Z,11.91
2022-11-16T09:51:01.878Z,11.99
2022-11-16T09:53:42.345Z,12.04
2022-11-16T09:56:10.582Z,12.06
2022-11-16T09:59:01.482Z,12.14
2022-11-16T10:01:29.110Z,12.18
2022-11-16T10:04:02.450Z,12.21
2022-11-16T10:06:44.646Z,12.24
2022-11-16T10:09:12.719Z,12.22
2022-11-16T10:12:04.487Z,12.30
2022-11-16T10:14:51.390Z,12.35
2022-11-16T10:17:36.515Z,12.42
2022-11-16T10:20:38.579Z,12.44
2022-11-16T10:23:14.530Z,12.45
2022-11-16T10:25:44.844Z,12.51
2022-11-16T10:28:43.580Z,12.55
2022-11-16T10:31:33.487Z,12.55
2022-11-16T10:34:00.958Z,12.60
2022-11-16T10:36:29.609Z,12.64
2022-11-16T10:38:51.766Z,12.67
2022-11-16T10:41:24.482Z,12.68
2022-11-16T10:43:48.663Z,12.65
2022-11-16T10:46:25.729Z,12.74
2022-11-16T10:49:40.056Z,12.78
2022-11-16T10:52:03.006Z,12.84
2022-11-16T10:54:24.973Z,12.90
2022-11-16T10:56:52.770Z,12.96
2022-11-16T10:59:20.438Z,12.95
2022-11-16T11:01:53.374Z,12.98
2022-11-16T11:04:30.191Z,13.03
2022-11-16T11:06:59.331Z,13.07
2022-11-16T11:09:41.788Z,13.11
2022-11-16T11:12:34.889Z,13.13
2022-11-16T11:15:12.264Z,13.18
2022-11-16T11:17:37.014Z,13.19
2022-11-16T11:20:23.070Z,13.25
2022-11-16T11:23:00.569Z,13.31
2022-11-16T11:25:38.844Z,13.32
2022-11-16T11:28:30.115Z,13.27
2022-11-16T11:31:33.901Z,13.20
2022-11-16T11:34:03.334Z,13.15
2022-11-16T11:36:41.563Z,13.13
2022-11-16T11:39:29.576Z,13.08
2022-11-16T11:42:23.614Z,13.10
2022-11-16T11:45:06.827Z,13.11
2022-11-16T11:47:58.132Z,13.13
2022-11-16T11:50:44.685Z,13.19
2022-11-16T11:53:58.275Z,13.33
2022-11-16T11:56:20.818Z,13.50
2022-11-16T11:58:44.384Z,13.57
2022-11-16T12:01:38.656Z,13.58
2022-11-16T12:04:28.537Z,13.52
2022-11-16T12:07:28.580Z,13.52
2022-11-16T12:10:16.764Z,13.46
2022-11-16T12:13:05.824Z,13.46
2022-11-16T12:16:02.157Z,13.45
2022-11-16T12:18:50.478Z,13.43
2022-11-16T12:21:15.083Z,13.43
2022-11-16T12:24:02.200Z,13.43
2022-11-16T12:26:50.393Z,13.41
2022-11-16T12:29:55.895Z,13.37
2022-11-16T12:32:54.988Z,13.34
2022-11-16T12:35:49.286Z,13.36
2022-11-16T12:38:37.386Z,13.37
2022-11-16T12:41:39.568Z,13.46
2022-11-16T12:44:14.895Z,13.50
2022-11-16T12:47:12.437Z,13.53
2022-11-16T12:50:11.400Z,13.59
2022-11-16T12:52:51.556Z,13.70
2022-11-16T12:55:32.183Z,13.77
2022-11-16T12:58:18.923Z,13.91
2022-11-16T13:01:22.570Z,14.01
2022-11-16T13:04:09.673Z,14.04
2022-11-16T13:06:44.450Z,14.08
2022-11-16T13:09:30.130Z,14.03
2022-11-16T13:11:58.419Z,14.03
2022-11-16T13:14:34.231Z,14.07
2022-11-16T13:17:00.600Z,14.02
2022-11-16T13:19:23.719Z,13.95
2022-11-16T13:22:10.631Z,14.01
2022-11-16T13:24:46.494Z,14.02
2022-11-16T13:27:39.453Z,14.00
2022-11-16T13:30:05.529Z,13.92
2022-11-16T13:32:47.013Z,13.84
2022-11-16T13:35:16.822Z,13.80
2022-11-16T13:37:38.763Z,13.74
2022-11-16T13:40:00.677Z,13.68
2022-11-16T13:42:22.734Z,13.63
2022-11-16T13:44:51.322Z,13.65
2022-11-16T13:47:30.640Z,13.75
2022-11-16T13:49:59.701Z,13.80
2022-11-16T13:52:25.032Z,13.84
2022-11-16T13:55:01.682Z,13.83
2022-11-16T13:57:34.966Z,13.83
2022-11-16T14:00:02.737Z,13.84
2022-11-16T14:02:36.227Z,13.97
2022-11-16T14:05:03.155Z,14.03
2022-11-16T14:07:43.299Z,14.15
2022-11-16T14:10:07.938Z,14.21
2022-11-16T14:12:39.087Z,14.26
2022-11-16T14:15:13.429Z,14.25
2022-11-16T14:18:07.506Z,14.25
2022-11-16T14:20:38.620Z,14.20
2022-11-16T14:23:21.467Z,14.11
2022-11-16T14:26:17.432Z,14.00
2022-11-16T14:29:20.276Z,13.94
2022-11-16T14:31:54.753Z,13.88
2022-11-16T14:34:22.563Z,13.84
2022-11-16T14:36:46.807Z,13.82
2022-11-16T14:39:17.863Z,13.80
2022-11-16T14:41:47.192Z,13.77
2022-11-16T14:44:11.305Z,13.75
2022-11-16T14:46:37.263Z,13.73
2022-11-16T14:49:02.612Z,13.71
2022-11-16T14:51:34.131Z,13.68
2022-11-16T14:54:11.424Z,13.62
2022-11-16T14:56:33.497Z,13.56
2022-11-16T14:59:01.556Z,13.52
2022-11-16T15:01:28.188Z,13.44
2022-11-16T15:04:04.133Z,13.39
2022-11-16T15:06:27.170Z,13.33
2022-11-16T15:08:56.993Z,13.26
2022-11-16T15:11:52.614Z,13.20
2022-11-16T15:14:32.662Z,13.10
2022-11-16T15:16:57.757Z,13.02
2022-11-16T15:19:20.980Z,12.92
2022-11-16T15:21:58.523Z,12.85
2022-11-16T15:24:38.549Z,12.76
2022-11-16T15:27:10.981Z,12.67
2022-11-16T15:29:33.034Z,12.57
2022-11-16T15:31:55.011Z,12.50
2022-11-16T15:34:19.668Z,12.42
2022-11-16T15:36:41.926Z,12.37
2022-11-16T15:39:06.168Z,12.30
2022-11-16T15:41:29.405Z,12.23
2022-11-16T15:44:13.608Z,12.16
2022-11-16T15:46:37.189Z,12.09
2022-11-16T15:49:00.297Z,12.05
2022-11-16T15:51:23.545Z,11.99
2022-11-16T15:53:54.291Z,11.95
2022-11-16T15:56:32.888Z,11.89
2022-11-16T15:59:01.619Z,11.85
2022-11-16T16:01:28.043Z,11.81
2022-11-16T16:04:05.428Z,11.80
2022-11-16T16:06:47.126Z,11.77
2022-11-16T16:09:23.776Z,11.75
2022-11-16T16:11:45.840Z,11.74
2022-11-16T16:14:10.820Z,11.77
2022-11-16T16:16:39.509Z,11.78
2022-11-16T16:19:09.493Z,11.78
2022-11-16T16:21:47.018Z,11.79
2022-11-16T16:24:35.063Z,11.77
2022-11-16T16:26:56.936Z,11.76
2022-11-16T16:29:18.796Z,11.77
2022-11-16T16:31:40.806Z,11.77
2022-11-16T16:34:12.042Z,11.77
2022-11-16T16:36:33.899Z,11.74
2022-11-16T16:38:57.085Z,11.77
2022-11-16T16:41:24.223Z,11.78
2022-11-16T16:43:46.875Z,11.79
2022-11-16T16:46:13.190Z,11.81
2022-11-16T16:48:35.864Z,11.81
2022-11-16T16:50:59.924Z,11.83
2022-11-16T16:53:21.848Z,11.83
2022-11-16T16:55:44.733Z,11.84
2022-11-16T16:58:06.791Z,11.85
2022-11-16T17:00:29.014Z,11.87
2022-11-16T17:02:51.067Z,11.86
2022-11-16T17:05:13.114Z,11.85
2022-11-16T17:07:35.321Z,11.85
2022-11-16T17:09:57.357Z,11.85
2022-11-16T17:12:19.300Z,11.85
2022-11-16T17:14:41.267Z,11.85
2022-11-16T17:17:03.322Z,11.82
2022-11-16T17:19:25.485Z,11.81
2022-11-16T17:21:47.461Z,11.77
2022-11-16T17:24:09.646Z,11.75
2022-11-16T17:26:31.609Z,11.70
2022-11-16T17:28:58.194Z,11.66
2022-11-16T17:31:20.131Z,11.60
2022-11-16T17:33:43.209Z,11.55
2022-11-16T17:36:07.368Z,11.50
2022-11-16T17:38:30.728Z,11.45
2022-11-16T17:40:52.571Z,11.40
2022-11-16T17:43:14.516Z,11.32
2022-11-16T17:45:36.347Z,11.28
2022-11-16T17:47:58.185Z,11.23
2022-11-16T17:50:20.095Z,11.19
2022-11-16T17:52:41.967Z,11.14
2022-11-16T17:55:04.254Z,11.10
2022-11-16T17:57:26.079Z,11.05
2022-11-16T17:59:48.288Z,11.01
2022-11-16T18:02:11.893Z,10.97
2022-11-16T18:04:33.937Z,10.91
2022-11-16T18:06:56.092Z,10.88
2022-11-16T18:09:18.980Z,10.83
2022-11-16T18:11:41.325Z,10.81
2022-11-16T18:14:05.668Z,10.80
2022-11-16T18:16:33.301Z,10.78
2022-11-16T18:18:59.695Z,10.74
2022-11-16T18:21:21.658Z,10.72
2022-11-16T18:23:43.676Z,10.70
2022-11-16T18:26:15.339Z,10.70
2022-11-16T18:28:38.153Z,10.66
2022-11-16T18:31:10.692Z,10.66
2022-11-16T18:33:33.938Z,10.64
2022-11-16T18:35:56.122Z,10.63
2022-11-16T18:38:17.966Z,10.60
2022-11-16T18:40:42.840Z,10.60
2022-11-16T18:43:04.758Z,10.57
2022-11-16T18:45:26.822Z,10.56
2022-11-16T18:47:48.693Z,10.51
2022-11-16T18:50:19.037Z,10.49
2022-11-16T18:52:46.617Z,10.47
2022-11-16T18:55:09.241Z,10.46
2022-11-16T18:57:32.117Z,10.43
2022-11-16T18:59:53.975Z,10.44
2022-11-16T19:02:15.884Z,10.44
2022-11-16T19:04:40.049Z,10.45
2022-11-16T19:07:02.021Z,10.47
2022-11-16T19:09:23.903Z,10.47
2022-11-16T19:11:46.284Z,10.48
2022-11-16T19:14:08.330Z,10.50
2022-11-16T19:16:31.345Z,10.50
2022-11-16T19:18:53.301Z,10.49
2022-11-16T19:21:19.883Z,10.48
2022-11-16T19:23:48.250Z,10.48
2022-11-16T19:26:12.967Z,10.48
2022-11-16T19:28:37.266Z,10.49
2022-11-16T19:30:59.482Z,10.48
2022-11-16T19:33:21.332Z,10.48
2022-11-16T19:35:43.194Z,10.48
2022-11-16T19:38:05.069Z,10.49
2022-11-16T19:40:26.903Z,10.48
2022-11-16T19:42:48.806Z,10.48
2022-11-16T19:45:11.989Z,10.49
2022-11-16T19:47:33.958Z,10.47
2022-11-16T19:49:55.978Z,10.47
2022-11-16T19:52:17.932Z,10.47
2022-11-16T19:54:39.800Z,10.47
2022-11-16T19:57:01.677Z,10.47
2022-11-16T19:59:23.589Z,10.46
2022-11-16T20:01:45.509Z,10.45
2022-11-16T20:04:07.920Z,10.47
2022-11-16T20:06:34.574Z,10.47
2022-11-16T20:09:00.986Z,10.47
2022-11-16T20:11:27.279Z,10.45
2022-11-16T20:13:51.778Z,10.47
2022-11-16T20:16:14.423Z,10.47
2022-11-16T20:18:37.968Z,10.47
2022-11-16T20:21:05.690Z,10.49
2022-11-16T20:23:27.894Z,10.49
2022-11-16T20:25:49.731Z,10.50
2022-11-16T20:28:11.649Z,10.51
2022-11-16T20:30:33.548Z,10.53
2022-11-16T20:32:55.391Z,10.53
2022-11-16T20:35:19.177Z,10.53
2022-11-16T20:37:42.765Z,10.53
2022-11-16T20:40:05.388Z,10.53
2022-11-16T20:42:27.312Z,10.55
2022-11-16T20:44:49.197Z,10.57
2022-11-16T20:47:11.086Z,10.57
2022-11-16T20:49:32.954Z,10.58
2022-11-16T20:51:55.096Z,10.60
2022-11-16T20:54:17.137Z,10.61
2022-11-16T20:56:38.951Z,10.62
2022-11-16T20:59:01.043Z,10.62
2022-11-16T21:01:28.846Z,10.63
2022-11-16T21:03:50.932Z,10.62
2022-11-16T21:06:14.973Z,10.62
2022-11-16T21:08:38.657Z,10.63
2022-11-16T21:11:00.709Z,10.64
2022-11-16T21:13:41.964Z,10.62
2022-11-16T21:16:13.746Z,10.62
2022-11-16T21:18:35.725Z,10.61
2022-11-16T21:21:06.333Z,10.62
2022-11-16T21:23:31.157Z,10.64
2022-11-16T21:26:04.665Z,10.66
2022-11-16T21:28:26.534Z,10.63
2022-11-16T21:31:11.607Z,10.64
2022-11-16T21:33:34.008Z,10.60
2022-11-16T21:35:56.547Z,10.62
2022-11-16T21:38:20.516Z,10.63
2022-11-16T21:40:44.076Z,10.64
2022-11-16T21:43:05.881Z,10.66
2022-11-16T21:45:27.805Z,10.67
2022-11-16T21:47:50.580Z,10.68
2022-11-16T21:52:54.585Z,10.70
2022-11-16T21:55:16.460Z,10.74
2022-11-16T21:57:38.455Z,10.75
2022-11-16T22:00:01.147Z,10.77
2022-11-16T22:02:33.407Z,10.79
2022-11-16T22:05:13.784Z,10.83
2022-11-16T22:07:38.465Z,10.83
2022-11-16T22:10:01.561Z,10.84
2022-11-16T22:12:23.381Z,10.85
2022-11-16T22:14:45.190Z,10.86
2022-11-16T22:17:08.364Z,10.87
2022-11-16T22:19:30.539Z,10.87
2022-11-16T22:21:52.671Z,10.86
2022-11-16T22:24:14.852Z,10.87
2022-11-16T22:26:38.147Z,10.87
2022-11-16T22:29:00.150Z,10.86
2022-11-16T22:31:22.106Z,10.85
2022-11-16T22:33:43.943Z,10.83
2022-11-16T22:36:09.325Z,10.82
2022-11-16T22:38:31.594Z,10.81
2022-11-16T22:40:56.824Z,10.79
2022-11-16T22:43:29.756Z,10.77
2022-11-16T22:45:52.007Z,10.74
2022-11-16T22:48:14.543Z,10.71
2022-11-16T22:50:36.390Z,10.69
2022-11-16T22:52:58.993Z,10.69
2022-11-16T22:55:20.825Z,10.70
2022-11-16T22:57:42.676Z,10.69
2022-11-16T23:00:06.506Z,10.68
2022-11-16T23:02:28.405Z,10.66
2022-11-16T23:04:50.272Z,10.68
2022-11-16T23:07:12.198Z,10.69
2022-11-16T23:09:34.454Z,10.70
2022-11-16T23:12:14.787Z,10.69
2022-11-16T23:14:54.966Z,10.66
2022-11-16T23:17:16.838Z,10.68
2022-11-16T23:19:57.658Z,10.66
2022-11-16T23:22:40.551Z,10.64
2022-11-16T23:25:21.443Z,10.63
2022-11-16T23:28:03.953Z,10.64
2022-11-16T23:30:27.158Z,10.62
2022-11-16T23:32:49.338Z,10.63
2022-11-16T23:35:11.907Z,10.64
2022-11-16T23:37:34.198Z,10.64
2022-11-16T23:39:56.037Z,10.66
2022-11-16T23:42:36.459Z,10.67
2022-11-16T23:44:58.282Z,10.66
2022-11-16T23:47:20.199Z,10.68
2022-11-16T23:49:42.108Z,10.69
2022-11-16T23:52:04.156Z,10.69
2022-11-16T23:54:26.071Z,10.71
2022-11-16T23:56:48.038Z,10.72
2022-11-16T23:59:09.887Z,10.74
